• Join FlightAware (Why Join?)
  • Login
  • US Flag 
07:48PM EDT


 

Airport Tracker/Info


-or-


 

Live Flight TrackerFlight Track Log ✈ N969BD ✈ 28-May-2013 ✈ KGLE - KPGA

Flight Track Log - Related Links

Times and Time Zones

All times are in EDT time to prevent confusion due to time zone crossing. See the N969BD flight status page for this flight to view local times or setup timezone preferences in your user account.

Time Position Orientation Groundspeed Altitude Reporting Facility
EDT Latitude Longitude Course Direction KTS MPH feet Rate Location/Type
02:37PM 33.7247 -97.5160 301° West  Level FlightAware Approximate
02:37PM 33.7308 -97.5283 301° West 170 196 4,100  Level Fort Worth Center
02:38PM 33.7456 -97.5733 291° West 145 167 4,300 240 Climbing Fort Worth Center
02:39PM 33.7578 -97.6133 290° West 145 167 4,700 360 Climbing Fort Worth Center
02:40PM 33.7642 -97.6533 281° West 140 161 5,100 300 Climbing Fort Worth Center
02:41PM 33.7681 -97.6908 277° West 130 150 5,400 300 Climbing Fort Worth Center
02:42PM 33.7786 -97.7333 287° West 125 144 5,700 300 Climbing Fort Worth Center
02:43PM 33.7908 -97.7783 288° West 125 144 6,100 300 Climbing Fort Worth Center
02:44PM 33.8033 -97.8183 291° West 125 144 6,400 240 Climbing Fort Worth Center
02:45PM 33.8136 -97.8611 286° West 130 150 6,600 300 Climbing Fort Worth Center
02:46PM 33.8239 -97.8986 288° West 130 150 7,000 360 Climbing Fort Worth Center
02:47PM 33.8361 -97.9386 290° West 130 150 7,400 360 Climbing Fort Worth Center
02:48PM 33.8464 -97.9836 285° West 130 150 7,800 360 Climbing Fort Worth Center
02:49PM 33.8589 -98.0264 289° West 130 150 8,200 360 Climbing Fort Worth Center
02:50PM 33.8689 -98.0689 286° West 130 150 8,600 360 Climbing Fort Worth Center
02:51PM 33.8814 -98.1064 292° West 130 150 9,000 360 Climbing Fort Worth Center
02:52PM 33.8936 -98.1592 286° West 130 150 9,500 420 Climbing Fort Worth Center
02:53PM 33.9017 -98.1917 287° West 130 150 9,900 480 Climbing Fort Worth Center
02:53PM 33.8994 -98.2042 258° West 132 152 10,000 360 Climbing Fort Worth Center
02:54PM 33.9097 -98.2369 291° West 130 150 10,300 240 Climbing Fort Worth Center
02:54PM 33.9075 -98.2494 258° West 134 154 10,300 360 Level Fort Worth Center
02:55PM 33.9178 -98.2794 292° West 136 157 10,700 360 Climbing Fort Worth Center
02:55PM 33.9178 -98.2944 270° West 136 157 10,700 300 Level Fort Worth Center
02:56PM 33.9258 -98.3247 288° West 144 166 11,000 360 Climbing Fort Worth Center
02:56PM 33.9258 -98.3422 270° West 143 165 11,100 360 Climbing Fort Worth Center
02:57PM 33.9339 -98.3697 289° West 144 166 11,400 360 Climbing Fort Worth Center
02:57PM 33.9358 -98.3897 277° West 144 166 11,500 360 Climbing Fort Worth Center
02:58PM 33.9439 -98.4225 287° West 144 166 11,800 360 Climbing Fort Worth Center
02:58PM 33.9417 -98.4350 258° West 143 165 11,900 60 Climbing Fort Worth Center
02:59PM 33.9519 -98.4700 290° West 144 166 11,900 60 Level Fort Worth Center
02:59PM 33.9517 -98.4878 269° West 151 174 12,000 60 Climbing Fort Worth Center
03:00PM 33.9639 -98.5203 294° West 149 171 12,000  Level Fort Worth Center
03:00PM 33.9636 -98.5403 269° West 163 188 12,000  Level Fort Worth Center
03:01PM 33.9778 -98.5906 289° West 153 176 12,000  Level Fort Worth Center
03:02PM 33.9900 -98.6408 286° West 159 183 12,100  Climbing Fort Worth Center
03:03PM 34.0019 -98.6936 285° West 169 194 12,000 -60 Descending Fort Worth Center
03:04PM 34.0158 -98.7567 285° West 171 197 12,000  Level Fort Worth Center
03:05PM 34.0339 -98.8194 289° West 184 212 12,000  Level Fort Worth Center
03:06PM 34.0458 -98.8747 285° West 184 212 12,000  Level Fort Worth Center
03:07PM 34.0597 -98.9328 286° West 184 212 12,000  Level Fort Worth Center
03:08PM 34.0736 -98.9956 285° West 184 212 12,100  Climbing Fort Worth Center
03:09PM 34.0853 -99.0511 284° West 184 212 12,000 -60 Descending Fort Worth Center
03:10PM 34.0992 -99.1114 286° West 184 212 12,000  Level Fort Worth Center
03:11PM 34.1169 -99.1769 288° West 184 212 12,000  Level Fort Worth Center
03:12PM 34.1286 -99.2375 283° West 184 212 12,000  Level Fort Worth Center
03:13PM 34.1444 -99.2981 288° West 184 212 12,000  Level Fort Worth Center
03:14PM 34.1561 -99.3511 285° West 184 212 12,000  Level Fort Worth Center
03:15PM 34.1697 -99.4117 285° West 184 212 12,000  Level Fort Worth Center
03:16PM 34.1814 -99.4747 283° West 184 212 12,000  Level Fort Worth Center
03:17PM 34.1969 -99.5378 287° West 184 212 12,100  Climbing Fort Worth Center
03:18PM 34.2125 -99.6008 287° West 184 212 12,000 -60 Descending Fort Worth Center
03:19PM 34.2303 -99.6592 290° West 184 212 12,000  Level Fort Worth Center
03:20PM 34.2481 -99.7175 290° West 184 212 12,000  Level Fort Worth Center
03:21PM 34.2658 -99.7756 290° West 195 224 12,100  Climbing Fort Worth Center
03:22PM 34.2856 -99.8367 291° West 190 219 12,000  Descending Fort Worth Center
03:23PM 34.3053 -99.8950 292° West 190 219 12,100  Climbing Fort Worth Center
03:24PM 34.3269 -99.9508 295° West 190 219 12,000 -60 Descending Fort Worth Center
03:25PM 34.3528 -100.0144 296° West 195 224 12,000  Level Fort Worth Center
03:26PM 34.3725 -100.0681 294° West 190 219 12,100  Climbing Fort Worth Center
03:27PM 34.3861 -100.1111 291° West 175 201 12,100 -180 Level Fort Worth Center
03:28PM 34.3906 -100.1328 284° West 175 201 11,900 -180 Descending Albuquerque Center
03:29PM 34.4119 -100.2022 290° West 182 209 11,900  Level Albuquerque Center
03:30PM 34.4283 -100.2597 289° West 182 209 11,900  Level Albuquerque Center
03:31PM 34.4456 -100.3161 290° West 180 207 11,900  Level Albuquerque Center
03:32PM 34.4622 -100.3742 289° West 182 209 11,900  Level Albuquerque Center
03:33PM 34.4789 -100.4322 289° West 182 209 11,900  Level Albuquerque Center
03:34PM 34.4933 -100.4903 287° West 181 208 11,900  Level Albuquerque Center
03:35PM 34.5075 -100.5492 286° West 182 209 11,900  Level Albuquerque Center
03:36PM 34.5267 -100.6183 289° West 182 209 11,900  Level Albuquerque Center
03:37PM 34.5419 -100.6758 288° West 180 207 11,900  Level Albuquerque Center
03:38PM 34.5569 -100.7328 288° West 178 205 11,900  Level Albuquerque Center
03:39PM 34.5708 -100.7908 286° West 179 206 11,900  Level Albuquerque Center
03:40PM 34.5831 -100.8508 284° West 182 209 11,900  Level Albuquerque Center
03:41PM 34.5972 -100.9089 287° West 181 208 11,900  Level Albuquerque Center
03:42PM 34.6097 -100.9669 285° West 179 206 11,900  Level Albuquerque Center
03:43PM 34.6247 -101.0356 285° West 176 203 11,900  Level Albuquerque Center
03:44PM 34.6408 -101.0919 289° West 176 203 11,900  Level Albuquerque Center
03:45PM 34.6564 -101.1483 289° West 177 204 11,900  Level Albuquerque Center
03:46PM 34.6728 -101.2042 290° West 175 201 11,900  Level Albuquerque Center
03:47PM 34.6886 -101.2611 289° West 177 204 11,900  Level Albuquerque Center
03:48PM 34.7039 -101.3203 287° West 180 207 11,900  Level Albuquerque Center
03:49PM 34.7203 -101.3786 289° West 182 209 11,900  Level Albuquerque Center
03:50PM 34.7400 -101.4458 290° West 180 207 11,900  Level Albuquerque Center
03:51PM 34.7567 -101.5014 290° West 177 204 11,900  Level Albuquerque Center
03:52PM 34.7739 -101.5572 291° West 176 203 11,900  Level Albuquerque Center
03:53PM 34.7919 -101.6133 291° West 177 204 11,900  Level Albuquerque Center
03:54PM 34.8081 -101.6681 290° West 175 201 11,900  Level Albuquerque Center
03:55PM 34.8261 -101.7239 292° West 176 203 11,900  Level Albuquerque Center
03:56PM 34.8428 -101.7792 290° West 174 200 11,900  Level Albuquerque Center
03:57PM 34.8603 -101.8344 291° West 174 200 11,900  Level Albuquerque Center
03:59PM 34.8792 -101.9003 289° West 172 198 11,900  Level Albuquerque Center
04:00PM 34.8933 -101.9561 287° West 172 198 11,900  Level Albuquerque Center
04:01PM 34.9081 -102.0136 287° West 176 203 11,900  Level Albuquerque Center
04:02PM 34.9222 -102.0711 287° West 177 204 11,900  Level Albuquerque Center
04:03PM 34.9375 -102.1272 288° West 175 201 11,900  Level Albuquerque Center
04:04PM 34.9514 -102.1806 288° West 169 194 11,900  Level Albuquerque Center
04:05PM 34.9639 -102.2361 285° West 169 194 11,900  Level Albuquerque Center
04:06PM 34.9733 -102.3028 280° West 167 192 11,900  Level Albuquerque Center
04:07PM 34.9828 -102.3569 282° West 165 190 11,900  Level Albuquerque Center
04:08PM 34.9925 -102.4136 282° West 168 193 11,900  Level Albuquerque Center
04:09PM 35.0019 -102.4708 281° West 171 197 11,900  Level Albuquerque Center
04:10PM 35.0183 -102.5208 292° West 162 186 12,000  Climbing Albuquerque Center
04:11PM 35.0300 -102.5778 284° West 169 194 11,900  Descending Albuquerque Center
04:12PM 35.0431 -102.6322 286° West 168 193 12,000  Climbing Albuquerque Center
04:13PM 35.0614 -102.6947 290° West 164 189 11,900 -60 Descending Albuquerque Center
04:14PM 35.0775 -102.7503 290° West 171 197 11,900  Level Albuquerque Center
04:15PM 35.0919 -102.8036 288° West 166 191 12,000  Climbing Albuquerque Center
04:16PM 35.1092 -102.8567 292° West 167 192 11,900  Descending Albuquerque Center
04:17PM 35.1244 -102.9050 291° West 158 182 12,000  Climbing Albuquerque Center
04:18PM 35.1428 -102.9658 290° West 164 189 12,000 -60 Level Albuquerque Center
04:19PM 35.1583 -103.0267 287° West 181 208 11,900  Descending Albuquerque Center
04:20PM 35.1736 -103.0833 288° West 177 204 12,100  Climbing Albuquerque Center
04:21PM 35.1925 -103.1461 290° West 189 217 11,900 -60 Descending Albuquerque Center
04:22PM 35.2094 -103.2039 290° West 186 214 12,000  Climbing Albuquerque Center
04:23PM 35.2244 -103.2628 287° West 181 208 12,000  Level Albuquerque Center
04:24PM 35.2414 -103.3200 290° West 179 206 12,000  Level Albuquerque Center
04:25PM 35.2556 -103.3753 287° West 172 198 12,000 -60 Level Albuquerque Center
04:26PM 35.2717 -103.4375 288° West 186 214 11,900  Descending Albuquerque Center
04:27PM 35.2889 -103.5078 287° West 185 213 12,000  Climbing Albuquerque Center
04:28PM 35.3056 -103.5658 289° West 181 208 12,000  Level Albuquerque Center
04:29PM 35.3167 -103.6211 284° West 170 196 12,000 -120 Level Albuquerque Center
04:30PM 35.3286 -103.6783 284° West 172 198 11,800 -60 Descending Albuquerque Center
04:31PM 35.3422 -103.7386 285° West 180 207 11,900  Climbing Albuquerque Center
04:32PM 35.3581 -103.7925 290° West 171 197 11,900 -120 Level Albuquerque Center
04:34PM 35.3731 -103.8481 288° West 170 196 11,700 -120 Descending Albuquerque Center
04:35PM 35.3844 -103.9028 284° West 169 194 11,700 60 Level Albuquerque Center
04:36PM 35.4000 -103.9603 288° West 159 183 11,900 60 Climbing Albuquerque Center
04:37PM 35.4125 -104.0150 286° West 160 184 11,900 -60 Level Albuquerque Center
04:38PM 35.4244 -104.0828 282° West 190 219 11,800 -60 Descending Albuquerque Center
04:39PM 35.4375 -104.1397 286° West 183 211 11,800  Level Albuquerque Center
04:40PM 35.4414 -104.1936 275° West 167 192 11,900  Climbing Albuquerque Center
04:41PM 35.4389 -104.2539 267° West 173 199 11,800 -60 Descending Albuquerque Center
04:42PM 35.4414 -104.3150 273° West 181 208 11,800 -60 Level Albuquerque Center
04:43PM 35.4444 -104.3836 273° West 174 200 11,700 -60 Descending Albuquerque Center
04:44PM 35.4456 -104.4414 271° West 173 199 11,700  Level Albuquerque Center
04:45PM 35.4442 -104.4908 268° West 157 181 11,800  Climbing Albuquerque Center
04:46PM 35.4433 -104.5450 269° West 154 177 11,800  Level Albuquerque Center
04:47PM 35.4403 -104.6011 266° West 160 184 11,800  Level Albuquerque Center
04:48PM 35.4361 -104.6589 265° West 165 190 11,800  Level Albuquerque Center
04:49PM 35.4408 -104.7189 276° West 171 197 11,800 60 Level Albuquerque Center
04:50PM 35.4442 -104.7792 274° West 173 199 12,000  Climbing Albuquerque Center
04:51PM 35.4428 -104.8494 269° West 175 201 11,800  Descending Albuquerque Center
04:52PM 35.4469 -104.9122 275° West 179 206 12,100  Climbing Albuquerque Center
04:53PM 35.4506 -104.9761 274° West 183 211 11,900 -240 Descending Albuquerque Center
04:54PM 35.4522 -105.0389 272° West 184 212 11,700 -60 Descending Albuquerque Center
04:55PM 35.4486 -105.0944 265° West 172 198 11,800  Climbing Albuquerque Center
04:56PM 35.4472 -105.1492 268° West 164 189 11,700  Descending Albuquerque Center
04:57PM 35.4478 -105.2094 271° West 169 194 11,800 -60 Climbing Albuquerque Center
04:58PM 35.4508 -105.2694 274° West 173 199 11,600 -120 Descending Albuquerque Center
04:59PM 35.4525 -105.3275 272° West 172 198 11,600 120 Level Albuquerque Center
05:00PM 35.4578 -105.3908 276° West 164 189 11,900 60 Climbing Albuquerque Center
05:01PM 35.4561 -105.4458 268° West 160 184 11,800 -60 Descending Albuquerque Center
05:02PM 35.4569 -105.5025 271° West 162 186 11,800  Level Albuquerque Center
05:03PM 35.4619 -105.5583 276° West 164 189 11,900 60 Climbing Albuquerque Center
05:04PM 35.4658 -105.6153 275° West 165 190 12,000  Climbing Albuquerque Center
05:05PM 35.4683 -105.6736 273° West 167 192 11,900 -60 Descending Albuquerque Center
05:06PM 35.4697 -105.7331 272° West 170 196 11,900  Level Albuquerque Center
05:07PM 35.4681 -105.7939 268° West 174 200 11,900  Level Albuquerque Center
05:09PM 35.4711 -105.8661 273° West 178 205 11,900  Level Albuquerque Center
05:10PM 35.4736 -105.9281 273° West 180 207 11,900  Level Albuquerque Center
05:11PM 35.4747 -105.9883 271° West 177 204 11,900  Level Albuquerque Center
05:12PM 35.4772 -106.0453 273° West 186 214 11,900  Level Albuquerque Center
05:13PM 35.4814 -106.1175 274° West 179 206 11,900  Level Albuquerque Center
05:14PM 35.4817 -106.1742 270° West 171 197 11,900  Level Albuquerque Center
05:15PM 35.4875 -106.2358 277° West 175 201 11,900  Level Albuquerque Center
05:16PM 35.4889 -106.2936 272° West 174 200 11,900  Level Albuquerque Center
05:17PM 35.4892 -106.3511 270° West 171 197 11,900  Level Albuquerque Center
05:18PM 35.4906 -106.4114 272° West 175 201 11,900  Level Albuquerque Center
05:19PM 35.4911 -106.4794 271° West 169 194 11,900  Level Albuquerque Center
05:20PM 35.4908 -106.5361 270° West 166 191 11,900  Level Albuquerque Center
05:21PM 35.4897 -106.5981 269° West 177 204 12,000  Climbing Albuquerque Center
05:22PM 35.4881 -106.6547 268° West 171 197 12,000 -60 Level Albuquerque Center
05:23PM 35.4864 -106.7133 268° West 171 197 11,900 -60 Descending Albuquerque Center
05:24PM 35.4847 -106.7736 268° West 176 203 11,900 -60 Level Albuquerque Center
05:25PM 35.4856 -106.8325 271° West 174 200 11,800  Descending Albuquerque Center
05:26PM 35.4856 -106.9025 270° West 172 198 11,900 60 Climbing Albuquerque Center
05:27PM 35.4861 -106.9575 271° West 165 190 12,000  Climbing Albuquerque Center
05:28PM 35.4861 -107.0153 270° West 168 193 11,900 -60 Descending Albuquerque Center
05:29PM 35.4858 -107.0725 270° West 168 193 11,900  Level Albuquerque Center
05:30PM 35.4844 -107.1300 268° West 169 194 12,000  Climbing Albuquerque Center
05:31PM 35.4858 -107.2017 271° West 179 206 12,000  Level Albuquerque Center
05:32PM 35.5122 -107.2575 300° West 193 222 12,000  Level Albuquerque Center
05:33PM 35.5361 -107.3175 296° West 180 207 12,000 -60 Level Albuquerque Center
05:34PM 35.5581 -107.3700 297° West 179 206 11,900  Descending Albuquerque Center
05:35PM 35.5808 -107.4278 296° West 171 197 12,000  Climbing Albuquerque Center
05:36PM 35.6000 -107.4786 295° West 171 197 12,000  Level Albuquerque Center
05:37PM 35.6231 -107.5383 295° West 173 199 12,000  Level Albuquerque Center
05:38PM 35.6456 -107.5869 300° West 171 197 12,000  Level Albuquerque Center
05:39PM 35.6642 -107.6369 295° West 170 196 12,000  Level Albuquerque Center
05:40PM 35.6861 -107.6936 296° West 166 191 12,000  Level Albuquerque Center
05:41PM 35.7044 -107.7464 293° West 172 198 12,000  Level Albuquerque Center
05:42PM 35.7258 -107.8064 294° West 172 198 12,100  Climbing Albuquerque Center
05:44PM 35.7436 -107.8575 293° West 170 196 12,000 -60 Descending Albuquerque Center
05:45PM 35.7619 -107.9217 289° West 175 201 12,000  Level Albuquerque Center
05:46PM 35.7786 -107.9761 291° West 176 203 12,000  Level Albuquerque Center
05:47PM 35.7944 -108.0300 290° West 176 203 12,000  Level Albuquerque Center
05:48PM 35.8144 -108.0956 291° West 180 207 12,100  Climbing Albuquerque Center
05:49PM 35.8328 -108.1511 292° West 181 208 12,000 -60 Descending Albuquerque Center
05:50PM 35.8544 -108.2125 294° West 179 206 12,000  Level Albuquerque Center
05:51PM 35.8725 -108.2639 293° West 174 200 12,000  Level Albuquerque Center
05:52PM 35.8933 -108.3250 293° West 173 199 12,000  Level Albuquerque Center
05:53PM 35.9108 -108.3744 294° West 170 196 12,000  Level Albuquerque Center
05:54PM 35.9267 -108.4256 291° West 167 192 12,000  Level Albuquerque Center
05:55PM 35.9456 -108.4897 290° West 172 198 12,100  Climbing Albuquerque Center
05:56PM 35.9642 -108.5444 293° West 177 204 12,000 -60 Descending Albuquerque Center
05:57PM 35.9900 -108.6036 298° West 177 204 12,000  Level Albuquerque Center
05:58PM 36.0108 -108.6533 297° West 174 200 12,000  Level Albuquerque Center
05:59PM 36.0308 -108.7094 294° West 166 191 12,000  Level Albuquerque Center
06:00PM 36.0464 -108.7606 291° West 164 189 12,000  Level Albuquerque Center
06:01PM 36.0628 -108.8131 291° West 168 193 12,000  Level Albuquerque Center
06:02PM 36.0828 -108.8661 295° West 165 190 12,100  Climbing Albuquerque Center
06:03PM 36.1067 -108.9233 297° West 166 191 12,000 -60 Descending Albuquerque Center
06:04PM 36.1269 -108.9753 296° West 172 198 12,000 -60 Level Albuquerque Center
06:05PM 36.1489 -109.0367 294° West 173 199 11,900 -60 Descending Denver Center
06:06PM 36.1642 -109.1028 286° West 177 204 11,900  Level Denver Center
06:07PM 36.1850 -109.1561 296° West 178 205 11,900  Level Denver Center
06:08PM 36.2094 -109.2181 296° West 178 205 11,900 60 Level Denver Center
06:10PM 36.2256 -109.2783 288° West 171 197 12,100 60 Climbing Denver Center
06:11PM 36.2419 -109.3428 288° West 172 198 12,100  Level Denver Center
06:12PM 36.2586 -109.3972 291° West 175 201 12,100  Level Denver Center
06:13PM 36.2794 -109.4608 292° West 177 204 12,100  Level Denver Center
06:14PM 36.2953 -109.5172 289° West 179 206 12,100  Level Denver Center
06:15PM 36.3167 -109.5814 292° West 180 207 12,100  Level Denver Center
06:16PM 36.3364 -109.6350 295° West 180 207 12,100  Level Denver Center
06:17PM 36.3542 -109.6839 294° West 171 197 12,100  Level Denver Center
06:18PM 36.3756 -109.7461 293° West 172 198 12,100 -60 Level Denver Center
06:19PM 36.3922 -109.7992 291° West 174 200 12,000  Descending Denver Center
06:20PM 36.4133 -109.8544 295° West 163 188 12,100  Climbing Denver Center
06:21PM 36.4325 -109.9103 293° West 174 200 12,100  Level Denver Center
06:22PM 36.4544 -109.9694 295° West 173 199 12,100  Level Denver Center
06:23PM 36.4736 -110.0200 295° West 170 196 12,100  Level Denver Center
06:24PM 36.4947 -110.0800 294° West 169 194 12,100 -60 Level Denver Center
06:25PM 36.5131 -110.1308 294° West 168 193 12,000  Descending Denver Center
06:26PM 36.5322 -110.1836 294° West 173 199 12,100  Climbing Denver Center
06:27PM 36.5531 -110.2403 295° West 166 191 12,100  Level Denver Center
06:28PM 36.5722 -110.2883 296° West 163 188 12,100 -60 Level Denver Center
06:29PM 36.5933 -110.3508 293° West 170 196 12,000  Descending Denver Center
06:30PM 36.6078 -110.3958 292° West 173 199 12,100  Climbing Denver Center
06:31PM 36.6278 -110.4711 288° West 178 205 12,100  Level Denver Center
06:32PM 36.6467 -110.5217 295° West 173 199 12,100 -60 Level Denver Center
06:33PM 36.6681 -110.5831 293° West 172 198 12,000 -360 Descending Denver Center
06:34PM 36.6836 -110.6300 292° West 180 207 11,400 -720 Descending Denver Center
06:35PM 36.7058 -110.6967 293° West 186 214 10,600 -660 Descending Denver Center
06:36PM 36.7269 -110.7636 291° West 186 214 10,100 -300 Descending Denver Center
06:37PM 36.7464 -110.8192 294° West 183 211 10,100 -60 Level Denver Center
06:38PM 36.7650 -110.8772 292° West 182 209 10,000  Descending Denver Center
06:39PM 36.7836 -110.9258 296° West 163 188 10,100  Climbing Denver Center
06:40PM 36.8047 -110.9817 295° West 151 174 10,100 -60 Level Denver Center
06:41PM 36.8214 -111.0317 293° West 153 176 10,000  Descending Denver Center
06:42PM 36.8347 -111.0892 286° West 162 186 10,100  Climbing Denver Center
06:43PM 36.8469 -111.1478 285° West 168 193 10,000 -300 Descending Denver Center
06:45PM 36.8603 -111.1942 290° West 156 180 9,500 -720 Descending Denver Center
06:46PM 36.8847 -111.2328 308° West 145 167 8,600 -900 Descending Denver Center
06:47PM 36.9031 -111.2631 307° West 127 146 7,700 -840 Descending Denver Center
06:48PM 36.9144 -111.3050 289° West 112 129 6,700 -840 Descending Denver Center
06:50PM 36.9099 -111.4130 293° West  Level FlightAware Approximate
06:57PM 36.9167 -111.4333 293° West  Level FlightAware Approximate
06:58PM 36.9261 -111.4484 293° West  Level Estimated
06:59PM 36.9261 -111.4484 293° West  Level Estimated
07:00PM 36.9261 -111.4484 293° West  Level Estimated
07:01PM 36.9261 -111.4484 293° West  Level Estimated
07:02PM 36.9261 -111.4484 293° West  Level Estimated
07:03PM 36.9261 -111.4484 293° West  Level Estimated
07:04PM 36.9261 -111.4484 293° West  Level Estimated
07:05PM 36.9261 -111.4484 293° West  Level Estimated